createdAt,value
2022-10-24T00:00:15.990Z,73.00
2022-10-24T00:02:15.933Z,73.00
2022-10-24T00:04:15.971Z,72.00
2022-10-24T00:06:15.948Z,72.00
2022-10-24T00:08:15.950Z,72.00
2022-10-24T00:10:15.961Z,72.00
2022-10-24T00:12:15.953Z,71.00
2022-10-24T00:14:15.930Z,71.00
2022-10-24T00:16:15.941Z,71.00
2022-10-24T00:18:15.958Z,71.00
2022-10-24T00:20:15.961Z,71.00
2022-10-24T00:22:15.929Z,71.00
2022-10-24T00:24:15.982Z,71.00
2022-10-24T00:26:15.986Z,71.00
2022-10-24T00:28:15.936Z,71.00
2022-10-24T00:30:15.928Z,72.00
2022-10-24T00:32:16.049Z,72.00
2022-10-24T00:34:15.957Z,72.00
2022-10-24T00:36:16.002Z,72.00
2022-10-24T00:38:15.952Z,73.00
2022-10-24T00:40:15.959Z,73.00
2022-10-24T00:42:17.079Z,73.00
2022-10-24T00:44:16.002Z,73.00
2022-10-24T00:46:16.105Z,73.00
2022-10-24T00:48:46.006Z,73.00
2022-10-24T00:50:45.992Z,73.00
2022-10-24T00:52:46.074Z,73.00
2022-10-24T00:54:45.970Z,73.00
2022-10-24T00:56:45.944Z,73.00
2022-10-24T00:58:45.969Z,73.00
2022-10-24T01:00:46.022Z,73.00
2022-10-24T01:02:46.188Z,73.00
2022-10-24T01:04:46.028Z,73.00
2022-10-24T01:06:46.037Z,73.00
2022-10-24T01:08:46.025Z,73.00
2022-10-24T01:10:45.963Z,73.00
2022-10-24T01:12:46.392Z,73.00
2022-10-24T01:14:46.053Z,73.00
2022-10-24T01:16:46.007Z,73.00
2022-10-24T01:18:46.027Z,73.00
2022-10-24T01:20:45.963Z,73.00
2022-10-24T01:22:46.357Z,73.00
2022-10-24T01:24:45.984Z,73.00
2022-10-24T01:26:46.021Z,73.00
2022-10-24T01:28:46.028Z,73.00
2022-10-24T01:30:46.133Z,73.00
2022-10-24T01:32:46.027Z,73.00
2022-10-24T01:34:46.111Z,73.00
2022-10-24T01:36:46.034Z,73.00
2022-10-24T01:38:46.099Z,73.00
2022-10-24T01:40:45.992Z,73.00
2022-10-24T01:42:46.012Z,74.00
2022-10-24T01:44:46.113Z,74.00
2022-10-24T01:46:46.043Z,74.00
2022-10-24T01:48:46.055Z,74.00
2022-10-24T01:50:46.008Z,74.00
2022-10-24T01:52:46.411Z,74.00
2022-10-24T01:54:46.004Z,75.00
2022-10-24T01:56:46.033Z,74.00
2022-10-24T01:58:46.022Z,74.00
2022-10-24T02:00:45.995Z,74.00
2022-10-24T02:02:46.346Z,74.00
2022-10-24T02:04:46.002Z,74.00
2022-10-24T02:06:46.025Z,74.00
2022-10-24T02:08:46.072Z,74.00
2022-10-24T02:10:46.114Z,74.00
2022-10-24T02:12:46.223Z,74.00
2022-10-24T02:14:46.011Z,74.00
2022-10-24T02:16:46.150Z,74.00
2022-10-24T02:18:46.043Z,73.00
2022-10-24T02:20:46.016Z,73.00
2022-10-24T02:22:46.016Z,73.00
2022-10-24T02:24:46.005Z,73.00
2022-10-24T02:26:46.064Z,73.00
2022-10-24T02:28:46.145Z,73.00
2022-10-24T02:30:46.012Z,73.00
2022-10-24T02:32:46.129Z,73.00
2022-10-24T02:34:46.083Z,73.00
2022-10-24T02:36:46.024Z,73.00
2022-10-24T02:38:46.075Z,73.00
2022-10-24T02:40:46.082Z,73.00
2022-10-24T02:42:46.057Z,73.00
2022-10-24T02:44:46.080Z,73.00
2022-10-24T02:47:16.030Z,73.00
2022-10-24T02:49:16.034Z,73.00
2022-10-24T02:51:16.053Z,73.00
2022-10-24T02:53:16.091Z,73.00
2022-10-24T02:55:16.100Z,73.00
2022-10-24T02:57:16.138Z,73.00
2022-10-24T02:59:16.041Z,73.00
2022-10-24T03:01:16.148Z,73.00
2022-10-24T03:03:16.063Z,73.00
2022-10-24T03:05:16.180Z,73.00
2022-10-24T03:07:16.084Z,73.00
2022-10-24T03:09:16.120Z,73.00
2022-10-24T03:11:16.122Z,73.00
2022-10-24T03:13:16.148Z,73.00
2022-10-24T03:15:16.095Z,73.00
2022-10-24T03:17:16.058Z,73.00
2022-10-24T03:19:16.120Z,74.00
2022-10-24T03:21:16.048Z,74.00
2022-10-24T03:23:16.155Z,74.00
2022-10-24T03:27:05.581Z,74.00
2022-10-24T03:29:05.542Z,74.00
2022-10-24T03:31:05.635Z,75.00
2022-10-24T03:33:05.521Z,75.00
2022-10-24T03:35:08.112Z,74.00
2022-10-24T03:37:05.570Z,74.00
2022-10-24T03:39:05.611Z,74.00
2022-10-24T03:41:05.564Z,74.00
2022-10-24T03:43:05.558Z,73.00
2022-10-24T03:45:05.601Z,73.00
2022-10-24T03:47:05.607Z,73.00
2022-10-24T03:49:05.578Z,74.00
2022-10-24T03:51:05.673Z,74.00
2022-10-24T03:53:05.559Z,73.00
2022-10-24T03:55:06.053Z,73.00
2022-10-24T03:57:05.792Z,73.00
2022-10-24T03:59:05.554Z,73.00
2022-10-24T04:01:05.693Z,73.00
2022-10-24T04:03:05.561Z,73.00
2022-10-24T04:05:35.697Z,73.00
2022-10-24T04:07:35.796Z,73.00
2022-10-24T04:09:35.613Z,73.00
2022-10-24T04:11:35.722Z,73.00
2022-10-24T04:13:35.734Z,73.00
2022-10-24T04:15:35.563Z,73.00
2022-10-24T04:17:35.623Z,73.00
2022-10-24T04:19:35.598Z,73.00
2022-10-24T04:21:35.623Z,73.00
2022-10-24T04:23:35.597Z,73.00
2022-10-24T04:25:35.766Z,73.00
2022-10-24T04:27:35.617Z,73.00
2022-10-24T04:29:35.651Z,73.00
2022-10-24T04:31:35.627Z,73.00
2022-10-24T04:33:35.619Z,73.00
2022-10-24T04:35:35.577Z,73.00
2022-10-24T04:37:35.712Z,73.00
2022-10-24T04:39:35.582Z,73.00
2022-10-24T04:41:35.588Z,73.00
2022-10-24T04:43:35.602Z,74.00
2022-10-24T04:45:35.777Z,74.00
2022-10-24T04:47:35.708Z,73.00
2022-10-24T04:49:35.668Z,73.00
2022-10-24T04:51:35.604Z,73.00
2022-10-24T04:53:35.595Z,74.00
2022-10-24T04:57:35.597Z,74.00
2022-10-24T04:59:35.654Z,73.00
2022-10-24T05:01:35.670Z,73.00
2022-10-24T05:03:35.622Z,73.00
2022-10-24T05:05:35.681Z,73.00
2022-10-24T05:07:35.651Z,73.00
2022-10-24T05:09:35.646Z,73.00
2022-10-24T05:11:35.652Z,73.00
2022-10-24T05:13:36.776Z,73.00
2022-10-24T05:15:35.684Z,73.00
2022-10-24T05:17:35.605Z,73.00
2022-10-24T05:19:35.659Z,73.00
2022-10-24T05:21:35.736Z,73.00
2022-10-24T05:23:35.664Z,73.00
2022-10-24T05:25:35.610Z,73.00
2022-10-24T05:27:35.646Z,74.00
2022-10-24T05:29:37.003Z,74.00
2022-10-24T05:31:35.675Z,74.00
2022-10-24T05:33:35.731Z,74.00
2022-10-24T05:35:35.703Z,74.00
2022-10-24T05:37:35.681Z,74.00
2022-10-24T05:39:35.728Z,74.00
2022-10-24T05:41:35.746Z,74.00
2022-10-24T05:43:35.622Z,74.00
2022-10-24T05:45:35.698Z,74.00
2022-10-24T05:47:35.699Z,74.00
2022-10-24T05:49:35.738Z,74.00
2022-10-24T05:51:35.654Z,74.00
2022-10-24T05:53:35.729Z,74.00
2022-10-24T05:55:35.682Z,74.00
2022-10-24T05:57:35.657Z,74.00
2022-10-24T05:59:35.685Z,74.00
2022-10-24T06:01:35.721Z,74.00
2022-10-24T06:03:35.674Z,74.00
2022-10-24T06:05:35.696Z,74.00
2022-10-24T06:07:35.681Z,74.00
2022-10-24T06:10:05.639Z,73.00
2022-10-24T06:12:05.766Z,73.00
2022-10-24T06:14:05.691Z,73.00
2022-10-24T06:16:05.682Z,74.00
2022-10-24T06:18:05.658Z,74.00
2022-10-24T06:20:05.651Z,74.00
2022-10-24T06:22:05.672Z,74.00
2022-10-24T06:24:05.713Z,74.00
2022-10-24T06:26:05.761Z,74.00
2022-10-24T06:28:05.736Z,74.00
2022-10-24T06:30:05.673Z,74.00
2022-10-24T06:32:05.706Z,74.00
2022-10-24T06:34:05.676Z,74.00
2022-10-24T06:36:05.662Z,74.00
2022-10-24T06:38:05.877Z,74.00
2022-10-24T06:40:05.686Z,74.00
2022-10-24T06:42:05.705Z,74.00
2022-10-24T06:44:10.084Z,74.00
2022-10-24T06:46:05.689Z,74.00
2022-10-24T06:48:05.757Z,74.00
2022-10-24T06:50:05.914Z,74.00
2022-10-24T06:52:05.660Z,74.00
2022-10-24T06:54:05.693Z,74.00
2022-10-24T06:56:05.760Z,74.00
2022-10-24T06:58:05.720Z,74.00
2022-10-24T07:00:05.784Z,74.00
2022-10-24T07:02:06.204Z,74.00
2022-10-24T07:04:05.783Z,74.00
2022-10-24T07:06:05.675Z,73.00
2022-10-24T07:08:05.691Z,73.00
2022-10-24T07:10:05.806Z,73.00
2022-10-24T07:12:05.708Z,73.00
2022-10-24T07:14:08.945Z,73.00
2022-10-24T07:16:05.764Z,73.00
2022-10-24T07:18:05.792Z,73.00
2022-10-24T07:20:05.676Z,74.00
2022-10-24T07:22:05.705Z,74.00
2022-10-24T07:24:05.699Z,74.00
2022-10-24T07:26:05.701Z,74.00
2022-10-24T07:28:05.695Z,75.00
2022-10-24T07:30:06.057Z,75.00
2022-10-24T07:32:05.699Z,76.00
2022-10-24T07:34:05.747Z,76.00
2022-10-24T07:36:05.733Z,76.00
2022-10-24T07:38:05.715Z,76.00
2022-10-24T07:40:05.781Z,77.00
2022-10-24T07:42:08.322Z,77.00
2022-10-24T07:44:05.744Z,77.00
2022-10-24T07:46:05.865Z,77.00
2022-10-24T07:48:05.749Z,77.00
2022-10-24T07:50:05.759Z,77.00
2022-10-24T07:52:05.720Z,78.00
2022-10-24T07:54:05.739Z,78.00
2022-10-24T07:56:05.719Z,78.00
2022-10-24T07:58:05.734Z,78.00
2022-10-24T08:00:05.772Z,77.00
2022-10-24T08:02:05.730Z,78.00
2022-10-24T08:04:05.816Z,78.00
2022-10-24T08:06:05.740Z,78.00
2022-10-24T08:08:37.356Z,78.00
2022-10-24T08:10:35.753Z,77.00
2022-10-24T08:12:35.785Z,77.00
2022-10-24T08:14:35.716Z,77.00
2022-10-24T08:16:35.733Z,77.00
2022-10-24T08:18:39.531Z,77.00
2022-10-24T08:20:35.734Z,78.00
2022-10-24T08:22:35.722Z,78.00
2022-10-24T08:24:35.841Z,78.00
2022-10-24T08:26:35.731Z,78.00
2022-10-24T08:28:35.761Z,78.00
2022-10-24T08:30:35.749Z,79.00
2022-10-24T08:32:35.798Z,79.00
2022-10-24T08:34:35.743Z,79.00
2022-10-24T08:36:35.777Z,79.00
2022-10-24T08:38:35.756Z,80.00
2022-10-24T08:40:35.786Z,80.00
2022-10-24T08:42:35.809Z,80.00
2022-10-24T08:44:35.759Z,80.00
2022-10-24T08:46:35.748Z,80.00
2022-10-24T08:48:35.749Z,80.00
2022-10-24T08:50:35.808Z,80.00
2022-10-24T08:52:35.783Z,80.00
2022-10-24T08:54:35.810Z,80.00
2022-10-24T08:56:35.760Z,80.00
2022-10-24T08:58:35.782Z,80.00
2022-10-24T09:00:35.783Z,80.00
2022-10-24T09:02:35.961Z,81.00
2022-10-24T09:04:35.789Z,81.00
2022-10-24T09:06:35.837Z,81.00
2022-10-24T09:08:35.850Z,81.00
2022-10-24T09:10:35.781Z,81.00
2022-10-24T09:12:35.756Z,81.00
2022-10-24T09:14:35.816Z,81.00
2022-10-24T09:16:35.912Z,81.00
2022-10-24T09:18:35.784Z,81.00
2022-10-24T09:20:35.760Z,81.00
2022-10-24T09:22:37.576Z,81.00
2022-10-24T09:24:35.823Z,80.00
2022-10-24T09:26:35.821Z,80.00
2022-10-24T09:28:35.899Z,80.00
2022-10-24T09:30:35.827Z,80.00
2022-10-24T09:32:35.811Z,80.00
2022-10-24T09:34:35.818Z,80.00
2022-10-24T09:36:35.843Z,80.00
2022-10-24T09:38:35.809Z,80.00
2022-10-24T09:40:35.802Z,80.00
2022-10-24T09:42:35.784Z,80.00
2022-10-24T09:44:35.844Z,80.00
2022-10-24T09:46:35.850Z,80.00
2022-10-24T09:48:35.831Z,79.00
2022-10-24T09:50:35.809Z,79.00
2022-10-24T09:52:35.894Z,79.00
2022-10-24T09:54:35.803Z,79.00
2022-10-24T09:56:35.799Z,79.00
2022-10-24T09:58:35.866Z,79.00
2022-10-24T10:00:35.808Z,78.00
2022-10-24T10:02:35.851Z,78.00
2022-10-24T10:04:35.831Z,78.00
2022-10-24T10:09:05.886Z,78.00
2022-10-24T10:11:05.814Z,78.00
2022-10-24T10:13:05.899Z,78.00
2022-10-24T10:15:05.865Z,78.00
2022-10-24T10:17:05.844Z,78.00
2022-10-24T10:19:05.851Z,78.00
2022-10-24T10:21:05.907Z,78.00
2022-10-24T10:23:05.812Z,78.00
2022-10-24T10:25:05.905Z,78.00
2022-10-24T10:27:05.882Z,78.00
2022-10-24T10:29:05.924Z,78.00
2022-10-24T10:33:05.919Z,78.00
2022-10-24T10:35:05.840Z,78.00
2022-10-24T10:39:05.924Z,78.00
2022-10-24T10:43:14.353Z,78.00
2022-10-24T10:45:14.339Z,78.00
2022-10-24T10:47:14.353Z,78.00
2022-10-24T10:49:14.329Z,78.00
2022-10-24T10:51:14.333Z,78.00
2022-10-24T10:53:14.322Z,78.00
2022-10-24T10:55:14.448Z,78.00
2022-10-24T10:57:14.357Z,78.00
2022-10-24T10:59:14.336Z,78.00
2022-10-24T11:01:14.385Z,78.00
2022-10-24T11:03:14.332Z,78.00
2022-10-24T11:05:14.368Z,77.00
2022-10-24T11:07:14.323Z,77.00
2022-10-24T11:09:14.365Z,77.00
2022-10-24T11:11:14.370Z,77.00
2022-10-24T11:13:14.467Z,77.00
2022-10-24T11:15:14.369Z,77.00
2022-10-24T11:17:14.320Z,77.00
2022-10-24T11:19:14.350Z,77.00
2022-10-24T11:21:14.330Z,76.00
2022-10-24T11:23:14.352Z,76.00
2022-10-24T11:25:14.329Z,76.00
2022-10-24T11:27:14.346Z,76.00
2022-10-24T11:29:14.346Z,76.00
2022-10-24T11:31:14.376Z,76.00
2022-10-24T11:33:14.416Z,76.00
2022-10-24T11:35:14.345Z,76.00
2022-10-24T11:37:14.346Z,76.00
2022-10-24T11:39:14.653Z,75.00
2022-10-24T11:41:14.368Z,75.00
2022-10-24T11:43:14.347Z,75.00
2022-10-24T11:45:14.870Z,75.00
2022-10-24T11:47:14.511Z,74.00
2022-10-24T11:49:14.383Z,74.00
2022-10-24T11:51:14.372Z,73.00
2022-10-24T11:53:14.517Z,73.00
2022-10-24T11:55:14.417Z,73.00
2022-10-24T11:59:14.476Z,73.00
2022-10-24T12:01:14.415Z,73.00
2022-10-24T12:03:14.399Z,73.00
2022-10-24T12:05:19.463Z,73.00
2022-10-24T12:07:14.363Z,72.00
2022-10-24T12:09:14.448Z,72.00
2022-10-24T12:11:14.473Z,72.00
2022-10-24T12:13:14.524Z,72.00
2022-10-24T12:15:14.518Z,72.00
2022-10-24T12:17:14.516Z,72.00
2022-10-24T12:19:14.435Z,72.00
2022-10-24T12:21:14.428Z,72.00
2022-10-24T12:23:14.466Z,72.00
2022-10-24T12:25:14.425Z,73.00
2022-10-24T12:27:14.451Z,72.00
2022-10-24T12:29:14.474Z,73.00
2022-10-24T12:31:14.403Z,73.00
2022-10-24T12:33:14.641Z,72.00
2022-10-24T12:35:30.847Z,72.00
2022-10-24T12:37:14.419Z,72.00
2022-10-24T12:39:14.446Z,72.00
2022-10-24T12:41:14.385Z,72.00
2022-10-24T12:43:44.524Z,73.00
2022-10-24T12:45:44.767Z,73.00
2022-10-24T12:47:44.592Z,73.00
2022-10-24T12:49:46.774Z,73.00
2022-10-24T12:51:44.535Z,73.00
2022-10-24T12:53:44.500Z,73.00
2022-10-24T12:55:44.431Z,74.00
2022-10-24T12:57:44.628Z,74.00
2022-10-24T12:59:44.542Z,74.00
2022-10-24T13:01:44.586Z,74.00
2022-10-24T13:03:44.539Z,74.00
2022-10-24T13:05:44.552Z,74.00
2022-10-24T13:07:48.416Z,74.00
2022-10-24T13:09:44.448Z,74.00
2022-10-24T13:11:44.463Z,74.00
2022-10-24T13:13:44.501Z,74.00
2022-10-24T13:15:44.425Z,74.00
2022-10-24T13:17:44.768Z,74.00
2022-10-24T13:19:44.445Z,74.00
2022-10-24T13:21:46.507Z,74.00
2022-10-24T13:23:44.404Z,74.00
2022-10-24T13:25:44.505Z,74.00
2022-10-24T13:27:44.531Z,74.00
2022-10-24T13:29:44.482Z,74.00
2022-10-24T13:31:44.530Z,73.00
2022-10-24T13:33:44.540Z,73.00
2022-10-24T13:35:44.450Z,73.00
2022-10-24T13:37:45.766Z,73.00
2022-10-24T13:39:44.553Z,73.00
2022-10-24T13:41:44.635Z,73.00
2022-10-24T13:43:44.500Z,73.00
2022-10-24T13:45:44.580Z,73.00
2022-10-24T13:47:45.828Z,73.00
2022-10-24T13:49:44.550Z,74.00
2022-10-24T13:51:44.443Z,74.00
2022-10-24T13:53:44.493Z,74.00
2022-10-24T13:55:44.617Z,74.00
2022-10-24T13:57:44.832Z,74.00
2022-10-24T13:59:44.459Z,74.00
2022-10-24T14:01:44.556Z,74.00
2022-10-24T14:03:44.581Z,74.00
2022-10-24T14:05:44.582Z,74.00
2022-10-24T14:07:44.457Z,74.00
2022-10-24T14:09:44.549Z,73.00
2022-10-24T14:11:44.450Z,74.00
2022-10-24T14:13:44.459Z,73.00
2022-10-24T14:15:44.498Z,73.00
2022-10-24T14:17:44.518Z,73.00
2022-10-24T14:19:46.618Z,74.00
2022-10-24T14:21:44.600Z,74.00
2022-10-24T14:23:44.483Z,74.00
2022-10-24T14:25:44.500Z,74.00
2022-10-24T14:27:44.844Z,74.00
2022-10-24T14:29:44.540Z,74.00
2022-10-24T14:31:44.789Z,74.00
2022-10-24T14:33:44.553Z,74.00
2022-10-24T14:35:44.649Z,74.00
2022-10-24T14:37:44.901Z,74.00
2022-10-24T14:39:44.494Z,74.00
2022-10-24T14:41:44.479Z,74.00
2022-10-24T14:43:44.568Z,74.00
2022-10-24T14:46:14.543Z,73.00
2022-10-24T14:48:14.518Z,73.00
2022-10-24T14:50:14.519Z,74.00
2022-10-24T14:52:14.497Z,74.00
2022-10-24T14:54:14.630Z,74.00
2022-10-24T14:56:14.685Z,74.00
2022-10-24T14:58:14.556Z,74.00
2022-10-24T15:02:14.490Z,74.00
2022-10-24T15:04:14.486Z,74.00
2022-10-24T15:06:14.592Z,74.00
2022-10-24T15:08:22.127Z,74.00
2022-10-24T15:10:14.652Z,74.00
2022-10-24T15:12:14.554Z,74.00
2022-10-24T15:14:14.535Z,74.00
2022-10-24T15:16:14.585Z,74.00
2022-10-24T15:18:14.652Z,74.00
2022-10-24T15:20:14.608Z,73.00
2022-10-24T15:22:15.299Z,73.00
2022-10-24T15:24:14.575Z,73.00
2022-10-24T15:26:14.665Z,73.00
2022-10-24T15:28:15.594Z,73.00
2022-10-24T15:30:14.555Z,73.00
2022-10-24T15:32:14.694Z,73.00
2022-10-24T15:34:14.611Z,73.00
2022-10-24T15:36:14.606Z,73.00
2022-10-24T15:38:14.527Z,73.00
2022-10-24T15:40:14.653Z,73.00
2022-10-24T15:42:16.441Z,74.00
2022-10-24T15:44:14.607Z,74.00
2022-10-24T15:46:14.619Z,74.00
2022-10-24T15:48:14.623Z,74.00
2022-10-24T15:50:14.687Z,74.00
2022-10-24T15:52:14.960Z,74.00
2022-10-24T15:54:14.830Z,74.00
2022-10-24T15:56:14.656Z,74.00
2022-10-24T15:58:14.613Z,75.00
2022-10-24T16:00:14.644Z,75.00
2022-10-24T16:02:14.662Z,75.00
2022-10-24T16:04:14.564Z,75.00
2022-10-24T16:06:14.541Z,75.00
2022-10-24T16:08:14.680Z,75.00
2022-10-24T16:10:14.651Z,75.00
2022-10-24T16:12:14.558Z,75.00
2022-10-24T16:14:14.648Z,75.00
2022-10-24T16:16:14.584Z,75.00
2022-10-24T16:18:14.610Z,75.00
2022-10-24T16:20:14.654Z,75.00
2022-10-24T16:22:14.656Z,75.00
2022-10-24T16:24:14.569Z,76.00
2022-10-24T16:26:14.821Z,76.00
2022-10-24T16:28:15.563Z,76.00
2022-10-24T16:30:14.541Z,76.00
2022-10-24T16:32:14.729Z,76.00
2022-10-24T16:34:14.646Z,76.00
2022-10-24T16:36:14.629Z,76.00
2022-10-24T16:38:14.565Z,76.00
2022-10-24T16:40:14.672Z,76.00
2022-10-24T16:42:14.548Z,76.00
2022-10-24T16:44:14.674Z,76.00
2022-10-24T16:46:44.588Z,76.00
2022-10-24T16:48:44.846Z,76.00
2022-10-24T16:50:46.237Z,76.00
2022-10-24T16:52:44.985Z,76.00
2022-10-24T16:54:44.618Z,76.00
2022-10-24T16:56:44.814Z,76.00
2022-10-24T16:58:44.582Z,76.00
2022-10-24T17:00:44.608Z,76.00
2022-10-24T17:02:44.697Z,76.00
2022-10-24T17:04:44.583Z,76.00
2022-10-24T17:06:44.561Z,76.00
2022-10-24T17:08:44.635Z,76.00
2022-10-24T17:10:44.611Z,76.00
2022-10-24T17:12:44.627Z,76.00
2022-10-24T17:14:44.657Z,76.00
2022-10-24T17:16:44.712Z,76.00
2022-10-24T17:18:51.276Z,76.00
2022-10-24T17:20:44.696Z,76.00
2022-10-24T17:22:44.658Z,76.00
2022-10-24T17:24:44.689Z,76.00
2022-10-24T17:26:44.584Z,76.00
2022-10-24T17:28:44.696Z,76.00
2022-10-24T17:30:44.653Z,76.00
2022-10-24T17:32:44.965Z,76.00
2022-10-24T17:34:44.645Z,76.00
2022-10-24T17:36:44.632Z,76.00
2022-10-24T17:38:44.600Z,76.00
2022-10-24T17:40:44.826Z,76.00
2022-10-24T17:42:44.996Z,76.00
2022-10-24T17:46:44.672Z,76.00
2022-10-24T17:50:37.500Z,76.00
2022-10-24T17:52:37.494Z,76.00
2022-10-24T17:54:40.066Z,76.00
2022-10-24T17:56:37.562Z,76.00
2022-10-24T17:58:37.563Z,76.00
2022-10-24T18:00:37.608Z,76.00
2022-10-24T18:02:37.504Z,76.00
2022-10-24T18:04:37.552Z,76.00
2022-10-24T18:06:40.738Z,76.00
2022-10-24T18:08:37.726Z,76.00
2022-10-24T18:10:37.590Z,76.00
2022-10-24T18:12:37.633Z,76.00
2022-10-24T18:14:37.604Z,76.00
2022-10-24T18:16:37.508Z,76.00
2022-10-24T18:19:07.569Z,76.00
2022-10-24T18:21:09.966Z,76.00
2022-10-24T18:23:07.508Z,76.00
2022-10-24T18:25:07.578Z,76.00
2022-10-24T18:27:07.754Z,76.00
2022-10-24T18:29:07.594Z,76.00
2022-10-24T18:31:07.733Z,76.00
2022-10-24T18:33:07.783Z,76.00
2022-10-24T18:35:07.689Z,76.00
2022-10-24T18:37:07.701Z,76.00
2022-10-24T18:39:07.561Z,76.00
2022-10-24T18:41:07.562Z,76.00
2022-10-24T18:43:07.643Z,76.00
2022-10-24T18:45:07.595Z,76.00
2022-10-24T18:47:07.714Z,76.00
2022-10-24T18:49:07.515Z,76.00
2022-10-24T18:51:07.643Z,76.00
2022-10-24T18:53:07.710Z,76.00
2022-10-24T18:55:07.580Z,76.00
2022-10-24T18:57:07.628Z,76.00
2022-10-24T18:59:07.801Z,76.00
2022-10-24T19:01:07.756Z,77.00
2022-10-24T19:03:08.174Z,76.00
2022-10-24T19:05:07.652Z,76.00
2022-10-24T19:07:07.542Z,76.00
2022-10-24T19:09:07.641Z,76.00
2022-10-24T19:13:07.578Z,73.00
2022-10-24T19:15:07.727Z,73.00
2022-10-24T19:17:07.654Z,71.00
2022-10-24T19:19:07.695Z,71.00
2022-10-24T19:21:07.666Z,71.00
2022-10-24T19:23:07.606Z,71.00
2022-10-24T19:25:07.621Z,72.00
2022-10-24T19:27:07.710Z,72.00
2022-10-24T19:29:07.672Z,72.00
2022-10-24T19:31:07.731Z,72.00
2022-10-24T19:33:07.702Z,72.00
2022-10-24T19:35:07.761Z,72.00
2022-10-24T19:37:07.775Z,73.00
2022-10-24T19:39:07.589Z,73.00
2022-10-24T19:41:07.606Z,73.00
2022-10-24T19:43:07.545Z,73.00
2022-10-24T19:45:07.666Z,73.00
2022-10-24T19:47:07.607Z,74.00
2022-10-24T19:49:07.597Z,74.00
2022-10-24T19:51:07.703Z,74.00
2022-10-24T19:53:07.691Z,74.00
2022-10-24T19:55:07.613Z,75.00
2022-10-24T19:57:07.679Z,75.00
2022-10-24T19:59:07.648Z,76.00
2022-10-24T20:01:07.809Z,76.00
2022-10-24T20:03:07.765Z,76.00
2022-10-24T20:05:07.692Z,77.00
2022-10-24T20:07:07.697Z,77.00
2022-10-24T20:09:07.669Z,77.00
2022-10-24T20:11:07.610Z,77.00
2022-10-24T20:13:07.682Z,78.00
2022-10-24T20:15:37.668Z,78.00
2022-10-24T20:17:37.769Z,78.00
2022-10-24T20:19:37.677Z,78.00
2022-10-24T20:21:37.731Z,78.00
2022-10-24T20:23:40.063Z,79.00
2022-10-24T20:25:37.741Z,79.00
2022-10-24T20:27:37.807Z,79.00
2022-10-24T20:29:37.696Z,79.00
2022-10-24T20:31:37.749Z,79.00
2022-10-24T20:33:37.700Z,79.00
2022-10-24T20:35:37.604Z,79.00
2022-10-24T20:37:37.630Z,79.00
2022-10-24T20:39:37.717Z,79.00
2022-10-24T20:41:37.678Z,79.00
2022-10-24T20:43:37.771Z,79.00
2022-10-24T20:45:37.706Z,79.00
2022-10-24T20:47:37.689Z,79.00
2022-10-24T20:49:37.629Z,79.00
2022-10-24T20:51:37.643Z,79.00
2022-10-24T20:53:37.632Z,79.00
2022-10-24T20:55:44.228Z,79.00
2022-10-24T20:57:37.760Z,79.00
2022-10-24T20:59:37.665Z,79.00
2022-10-24T21:01:37.761Z,79.00
2022-10-24T21:03:37.733Z,79.00
2022-10-24T21:05:37.747Z,79.00
2022-10-24T21:07:37.780Z,79.00
2022-10-24T21:09:37.742Z,79.00
2022-10-24T21:11:37.679Z,79.00
2022-10-24T21:13:37.678Z,80.00
2022-10-24T21:15:37.714Z,80.00
2022-10-24T21:17:37.747Z,80.00
2022-10-24T21:19:37.759Z,80.00
2022-10-24T21:21:37.773Z,79.00
2022-10-24T21:23:38.049Z,79.00
2022-10-24T21:25:37.863Z,79.00
2022-10-24T21:27:37.669Z,79.00
2022-10-24T21:29:37.712Z,79.00
2022-10-24T21:31:37.703Z,79.00
2022-10-24T21:33:37.728Z,79.00
2022-10-24T21:35:37.740Z,79.00
2022-10-24T21:37:37.728Z,80.00
2022-10-24T21:39:37.780Z,80.00
2022-10-24T21:41:37.811Z,80.00
2022-10-24T21:43:37.673Z,80.00
2022-10-24T21:45:37.677Z,80.00
2022-10-24T21:47:37.730Z,80.00
2022-10-24T21:49:37.642Z,80.00
2022-10-24T21:51:37.764Z,80.00
2022-10-24T21:53:37.760Z,80.00
2022-10-24T21:55:37.818Z,80.00
2022-10-24T21:57:37.697Z,80.00
2022-10-24T21:59:37.718Z,80.00
2022-10-24T22:01:37.777Z,80.00
2022-10-24T22:03:37.664Z,80.00
2022-10-24T22:05:37.779Z,80.00
2022-10-24T22:07:37.790Z,80.00
2022-10-24T22:09:37.790Z,80.00
2022-10-24T22:11:37.849Z,80.00
2022-10-24T22:14:07.747Z,80.00
2022-10-24T22:16:07.718Z,80.00
2022-10-24T22:18:07.791Z,80.00
2022-10-24T22:20:07.747Z,80.00
2022-10-24T22:22:07.791Z,80.00
2022-10-24T22:26:07.667Z,80.00
2022-10-24T22:28:07.738Z,80.00
2022-10-24T22:30:07.725Z,81.00
2022-10-24T22:32:07.748Z,81.00
2022-10-24T22:34:07.775Z,81.00
2022-10-24T22:36:07.790Z,81.00
2022-10-24T22:38:07.766Z,81.00
2022-10-24T22:40:07.689Z,81.00
2022-10-24T22:42:07.676Z,81.00
2022-10-24T22:44:07.713Z,81.00
2022-10-24T22:46:07.764Z,81.00
2022-10-24T22:48:07.722Z,81.00
2022-10-24T22:50:07.673Z,81.00
2022-10-24T22:52:07.804Z,81.00
2022-10-24T22:54:07.730Z,81.00
2022-10-24T22:56:07.707Z,81.00
2022-10-24T22:58:07.727Z,81.00
2022-10-24T23:00:07.679Z,81.00
2022-10-24T23:02:07.750Z,81.00
2022-10-24T23:04:07.772Z,81.00
2022-10-24T23:06:07.680Z,81.00
2022-10-24T23:08:07.678Z,81.00
2022-10-24T23:10:07.711Z,81.00
2022-10-24T23:12:07.740Z,81.00
2022-10-24T23:14:07.794Z,81.00
2022-10-24T23:16:07.730Z,81.00
2022-10-24T23:18:07.787Z,81.00
2022-10-24T23:20:07.681Z,81.00
2022-10-24T23:22:07.725Z,81.00
2022-10-24T23:24:07.744Z,81.00
2022-10-24T23:26:07.684Z,81.00
2022-10-24T23:28:07.734Z,81.00
2022-10-24T23:30:07.734Z,81.00
2022-10-24T23:32:07.730Z,81.00
2022-10-24T23:34:07.690Z,80.00
2022-10-24T23:36:07.710Z,80.00
2022-10-24T23:38:07.748Z,80.00
2022-10-24T23:40:07.707Z,80.00
2022-10-24T23:42:07.728Z,80.00
2022-10-24T23:44:07.703Z,80.00
2022-10-24T23:46:07.767Z,80.00
2022-10-24T23:48:07.706Z,80.00
2022-10-24T23:50:07.706Z,80.00
2022-10-24T23:52:07.849Z,80.00
2022-10-24T23:54:07.712Z,80.00
2022-10-24T23:56:07.730Z,80.00
2022-10-24T23:58:07.740Z,80.00
